createdAt,value
2018-02-25T00:01:16.105Z,56.55
2018-02-25T00:02:15.834Z,57.03
2018-02-25T00:04:38.849Z,57.12
2018-02-25T00:07:02.181Z,57.50
2018-02-25T00:08:01.759Z,56.46
2018-02-25T00:09:01.764Z,56.46
2018-02-25T00:10:01.787Z,56.74
2018-02-25T00:11:01.674Z,57.03
2018-02-25T00:12:01.628Z,56.84
2018-02-25T00:13:01.635Z,57.50
2018-02-25T00:14:01.576Z,57.31
2018-02-25T00:15:01.617Z,57.31
2018-02-25T00:16:01.531Z,57.21
2018-02-25T00:17:01.507Z,57.21
2018-02-25T00:18:01.452Z,57.40
2018-02-25T00:19:01.475Z,57.31
2018-02-25T00:20:01.394Z,57.31
2018-02-25T00:21:01.395Z,57.31
2018-02-25T00:22:01.382Z,57.40
2018-02-25T00:23:01.325Z,57.03
2018-02-25T00:24:01.284Z,57.50
2018-02-25T00:25:01.304Z,57.87
2018-02-25T00:26:01.238Z,57.59
2018-02-25T00:27:01.218Z,57.59
2018-02-25T00:28:01.185Z,57.68
2018-02-25T00:29:01.179Z,57.03
2018-02-25T00:30:01.128Z,57.21
2018-02-25T00:31:01.088Z,57.31
2018-02-25T00:32:01.043Z,57.21
2018-02-25T00:33:01.035Z,57.31
2018-02-25T00:34:00.985Z,57.50
2018-02-25T00:35:00.985Z,57.31
2018-02-25T00:36:00.927Z,57.03
2018-02-25T00:37:00.910Z,57.40
2018-02-25T00:38:00.872Z,57.03
2018-02-25T00:39:00.849Z,57.03
2018-02-25T00:40:00.818Z,57.21
2018-02-25T00:41:00.782Z,57.50
2018-02-25T00:42:00.824Z,57.40
2018-02-25T00:43:00.742Z,57.31
2018-02-25T00:44:00.690Z,57.59
2018-02-25T00:45:00.701Z,57.68
2018-02-25T00:46:00.647Z,57.50
2018-02-25T00:48:23.771Z,57.50
2018-02-25T00:49:23.724Z,57.68
2018-02-25T00:50:23.693Z,57.78
2018-02-25T00:51:23.527Z,57.59
2018-02-25T00:52:23.547Z,57.40
2018-02-25T00:53:23.477Z,57.87
2018-02-25T00:54:23.462Z,58.15
2018-02-25T00:55:23.470Z,57.78
2018-02-25T00:56:23.381Z,58.15
2018-02-25T00:57:23.366Z,57.59
2018-02-25T00:58:23.318Z,57.50
2018-02-25T00:59:23.292Z,57.50
2018-02-25T01:00:23.340Z,57.59
2018-02-25T01:01:23.234Z,57.78
2018-02-25T01:02:23.268Z,57.50
2018-02-25T01:03:23.206Z,57.68
2018-02-25T01:04:23.180Z,57.78
2018-02-25T01:06:56.230Z,57.68
2018-02-25T01:07:46.395Z,57.97
2018-02-25T01:08:46.085Z,57.68
2018-02-25T01:09:46.164Z,58.63
2018-02-25T01:10:46.069Z,58.53
2018-02-25T01:11:46.056Z,58.25
2018-02-25T01:12:45.965Z,58.44
2018-02-25T01:13:46.002Z,58.15
2018-02-25T01:14:45.924Z,58.63
2018-02-25T01:15:45.906Z,58.34
2018-02-25T01:16:45.848Z,58.34
2018-02-25T01:17:45.841Z,58.34
2018-02-25T01:18:45.803Z,58.82
2018-02-25T01:19:45.778Z,58.53
2018-02-25T01:22:08.774Z,58.44
2018-02-25T01:24:31.932Z,58.34
2018-02-25T01:25:31.689Z,58.25
2018-02-25T01:26:31.763Z,58.15
2018-02-25T01:27:31.629Z,57.97
2018-02-25T01:28:31.595Z,58.34
2018-02-25T01:29:31.580Z,58.63
2018-02-25T01:30:31.539Z,58.15
2018-02-25T01:31:31.546Z,58.72
2018-02-25T01:32:31.479Z,59.00
2018-02-25T01:33:31.458Z,58.63
2018-02-25T01:34:31.450Z,58.72
2018-02-25T01:35:31.443Z,58.91
2018-02-25T01:36:31.387Z,59.00
2018-02-25T01:37:31.328Z,59.19
2018-02-25T01:38:31.350Z,58.72
2018-02-25T01:39:31.277Z,58.82
2018-02-25T01:40:31.281Z,58.63
2018-02-25T01:41:31.240Z,58.82
2018-02-25T01:42:31.200Z,59.29
2018-02-25T01:43:31.157Z,59.10
2018-02-25T01:44:31.142Z,58.63
2018-02-25T01:45:31.106Z,58.82
2018-02-25T01:46:31.076Z,59.29
2018-02-25T01:47:31.062Z,59.00
2018-02-25T01:48:31.038Z,58.63
2018-02-25T01:49:31.011Z,58.79
2018-02-25T01:50:30.944Z,58.82
2018-02-25T01:51:30.952Z,59.00
2018-02-25T01:52:30.883Z,59.29
2018-02-25T01:53:30.920Z,59.19
2018-02-25T01:54:30.822Z,59.10
2018-02-25T01:55:30.859Z,59.07
2018-02-25T01:56:30.792Z,59.19
2018-02-25T01:57:30.817Z,59.07
2018-02-25T01:58:30.784Z,59.17
2018-02-25T01:59:30.675Z,58.88
2018-02-25T02:00:30.675Z,58.98
2018-02-25T02:01:30.625Z,59.07
2018-02-25T02:02:30.597Z,59.07
2018-02-25T02:03:30.604Z,58.98
2018-02-25T02:04:30.561Z,59.07
2018-02-25T02:05:30.524Z,58.88
2018-02-25T02:06:30.479Z,59.54
2018-02-25T02:07:30.457Z,59.35
2018-02-25T02:08:30.496Z,59.45
2018-02-25T02:09:30.386Z,59.64
2018-02-25T02:10:30.351Z,59.35
2018-02-25T02:11:30.366Z,59.64
2018-02-25T02:12:30.332Z,59.92
2018-02-25T02:13:30.270Z,59.45
2018-02-25T02:14:30.227Z,59.45
2018-02-25T02:15:30.203Z,59.83
2018-02-25T02:16:30.203Z,59.64
2018-02-25T02:17:30.311Z,59.64
2018-02-25T02:18:30.123Z,59.83
2018-02-25T02:19:30.090Z,59.64
2018-02-25T02:20:30.059Z,59.54
2018-02-25T02:21:30.021Z,59.92
2018-02-25T02:22:29.995Z,60.02
2018-02-25T02:23:29.964Z,60.21
2018-02-25T02:24:29.953Z,60.02
2018-02-25T02:26:52.940Z,60.21
2018-02-25T02:27:53.010Z,60.39
2018-02-25T02:28:52.905Z,59.83
2018-02-25T02:29:52.820Z,60.21
2018-02-25T02:30:52.794Z,60.21
2018-02-25T02:31:52.792Z,59.73
2018-02-25T02:32:52.741Z,60.21
2018-02-25T02:33:52.710Z,60.02
2018-02-25T02:34:52.670Z,59.73
2018-02-25T02:35:52.645Z,60.11
2018-02-25T02:36:52.628Z,60.11
2018-02-25T02:37:52.591Z,60.68
2018-02-25T02:38:52.553Z,60.11
2018-02-25T02:39:52.552Z,59.92
2018-02-25T02:40:52.496Z,60.11
2018-02-25T02:41:52.519Z,60.77
2018-02-25T02:42:52.439Z,60.49
2018-02-25T02:43:52.426Z,60.58
2018-02-25T02:44:52.391Z,60.86
2018-02-25T02:45:52.341Z,61.05
2018-02-25T02:46:52.340Z,61.05
2018-02-25T02:47:52.315Z,60.77
2018-02-25T02:48:52.258Z,60.30
2018-02-25T02:49:52.248Z,60.49
2018-02-25T02:50:52.190Z,60.68
2018-02-25T02:51:52.225Z,61.15
2018-02-25T02:52:52.142Z,61.15
2018-02-25T02:53:52.099Z,60.77
2018-02-25T02:54:52.079Z,60.96
2018-02-25T02:55:52.048Z,60.68
2018-02-25T02:56:52.019Z,61.15
2018-02-25T02:57:51.999Z,60.96
2018-02-25T02:58:51.957Z,60.77
2018-02-25T02:59:51.925Z,60.86
2018-02-25T03:00:51.892Z,60.86
2018-02-25T03:01:51.871Z,60.96
2018-02-25T03:02:51.834Z,61.52
2018-02-25T03:03:51.812Z,61.15
2018-02-25T03:04:51.768Z,61.33
2018-02-25T03:05:51.750Z,61.43
2018-02-25T03:06:51.737Z,61.33
2018-02-25T03:07:51.699Z,61.24
2018-02-25T03:08:51.668Z,61.52
2018-02-25T03:09:51.631Z,61.43
2018-02-25T03:10:51.639Z,61.52
2018-02-25T03:11:51.576Z,61.15
2018-02-25T03:12:51.561Z,61.24
2018-02-25T03:13:51.543Z,61.05
2018-02-25T03:14:51.468Z,61.15
2018-02-25T03:15:51.451Z,61.33
2018-02-25T03:16:51.426Z,60.96
2018-02-25T03:17:51.383Z,61.43
2018-02-25T03:18:51.365Z,61.43
2018-02-25T03:19:51.346Z,61.24
2018-02-25T03:20:51.289Z,61.24
2018-02-25T03:21:51.257Z,61.33
2018-02-25T03:22:51.261Z,61.33
2018-02-25T03:23:51.204Z,61.71
2018-02-25T03:24:51.206Z,61.80
2018-02-25T03:25:51.168Z,62.09
2018-02-25T03:26:51.108Z,61.99
2018-02-25T03:27:51.075Z,62.28
2018-02-25T03:28:51.084Z,61.99
2018-02-25T03:29:51.019Z,61.99
2018-02-25T03:30:51.023Z,61.71
2018-02-25T03:31:50.970Z,61.90
2018-02-25T03:32:50.930Z,62.09
2018-02-25T03:33:50.897Z,61.71
2018-02-25T03:34:50.872Z,62.18
2018-02-25T03:35:50.929Z,61.99
2018-02-25T03:36:50.827Z,61.71
2018-02-25T03:37:50.838Z,61.90
2018-02-25T03:38:50.860Z,61.24
2018-02-25T03:39:50.746Z,61.24
2018-02-25T03:40:50.726Z,61.80
2018-02-25T03:41:50.686Z,61.80
2018-02-25T03:42:50.639Z,62.18
2018-02-25T03:43:50.638Z,62.09
2018-02-25T03:44:50.612Z,62.18
2018-02-25T03:45:50.534Z,61.90
2018-02-25T03:46:50.515Z,61.71
2018-02-25T03:47:50.473Z,61.90
2018-02-25T03:48:50.476Z,61.99
2018-02-25T03:49:50.452Z,61.90
2018-02-25T03:50:50.397Z,62.18
2018-02-25T03:51:50.376Z,62.37
2018-02-25T03:52:50.320Z,62.47
2018-02-25T03:53:50.299Z,61.99
2018-02-25T03:54:50.266Z,61.99
2018-02-25T03:55:50.258Z,61.80
2018-02-25T03:56:50.238Z,61.90
2018-02-25T03:57:50.181Z,61.99
2018-02-25T03:58:50.156Z,62.18
2018-02-25T03:59:50.119Z,61.90
2018-02-25T04:00:50.124Z,61.71
2018-02-25T04:01:50.050Z,61.90
2018-02-25T04:02:50.020Z,62.09
2018-02-25T04:03:50.019Z,62.18
2018-02-25T04:04:49.957Z,61.99
2018-02-25T04:05:49.975Z,61.99
2018-02-25T04:06:49.912Z,61.80
2018-02-25T04:07:49.891Z,62.28
2018-02-25T04:08:49.839Z,61.71
2018-02-25T04:09:49.824Z,61.80
2018-02-25T04:10:49.804Z,61.61
2018-02-25T04:11:49.750Z,61.33
2018-02-25T04:12:49.744Z,61.24
2018-02-25T04:13:49.703Z,61.33
2018-02-25T04:14:49.674Z,61.33
2018-02-25T04:15:49.625Z,61.43
2018-02-25T04:16:49.611Z,61.24
2018-02-25T04:17:49.589Z,61.33
2018-02-25T04:18:49.550Z,61.43
2018-02-25T04:19:49.536Z,61.15
2018-02-25T04:20:49.486Z,61.71
2018-02-25T04:21:49.455Z,61.43
2018-02-25T04:22:49.443Z,61.33
2018-02-25T04:23:49.381Z,61.43
2018-02-25T04:24:49.396Z,61.15
2018-02-25T04:25:49.327Z,61.33
2018-02-25T04:26:49.316Z,61.61
2018-02-25T04:27:49.295Z,61.43
2018-02-25T04:28:49.228Z,61.52
2018-02-25T04:29:49.207Z,61.52
2018-02-25T04:30:49.171Z,61.52
2018-02-25T04:31:49.157Z,61.52
2018-02-25T04:32:49.189Z,61.52
2018-02-25T04:33:49.119Z,61.71
2018-02-25T04:34:49.062Z,61.52
2018-02-25T04:35:49.027Z,61.24
2018-02-25T04:36:48.997Z,61.24
2018-02-25T04:37:48.966Z,61.15
2018-02-25T04:38:48.989Z,61.33
2018-02-25T04:39:48.890Z,61.24
2018-02-25T04:40:48.871Z,61.40
2018-02-25T04:41:48.827Z,61.30
2018-02-25T04:42:48.811Z,61.61
2018-02-25T04:43:48.787Z,61.21
2018-02-25T04:44:48.744Z,61.43
2018-02-25T04:45:48.711Z,61.33
2018-02-25T04:46:48.706Z,61.80
2018-02-25T04:47:48.666Z,61.77
2018-02-25T04:48:48.622Z,61.77
2018-02-25T04:49:48.611Z,61.87
2018-02-25T04:50:48.587Z,61.68
2018-02-25T04:51:48.531Z,61.40
2018-02-25T04:52:48.498Z,61.30
2018-02-25T04:53:48.516Z,61.30
2018-02-25T04:54:48.452Z,61.87
2018-02-25T04:55:48.407Z,61.77
2018-02-25T04:56:48.384Z,61.58
2018-02-25T04:57:48.346Z,61.71
2018-02-25T04:58:48.315Z,61.40
2018-02-25T04:59:48.292Z,61.58
2018-02-25T05:00:48.292Z,61.77
2018-02-25T05:01:48.247Z,61.49
2018-02-25T05:02:48.213Z,61.68
2018-02-25T05:03:48.168Z,62.15
2018-02-25T05:04:48.137Z,61.68
2018-02-25T05:05:48.122Z,61.87
2018-02-25T05:06:48.069Z,61.87
2018-02-25T05:07:48.063Z,62.15
2018-02-25T05:08:48.005Z,61.96
2018-02-25T05:09:47.986Z,61.96
2018-02-25T05:10:47.952Z,62.15
2018-02-25T05:11:47.911Z,61.96
2018-02-25T05:12:47.886Z,62.15
2018-02-25T05:13:47.903Z,61.77
2018-02-25T05:14:47.861Z,61.77
2018-02-25T05:15:47.820Z,62.15
2018-02-25T05:16:47.792Z,61.96
2018-02-25T05:17:47.767Z,61.96
2018-02-25T05:18:47.705Z,61.68
2018-02-25T05:19:47.673Z,61.40
2018-02-25T05:20:47.660Z,62.15
2018-02-25T05:21:47.622Z,62.06
2018-02-25T05:22:47.612Z,62.15
2018-02-25T05:23:47.565Z,61.68
2018-02-25T05:24:47.519Z,61.77
2018-02-25T05:25:47.507Z,61.68
2018-02-25T05:26:47.466Z,61.87
2018-02-25T05:27:47.420Z,62.43
2018-02-25T05:28:47.403Z,62.34
2018-02-25T05:29:47.379Z,62.25
2018-02-25T05:30:47.361Z,62.62
2018-02-25T05:31:47.328Z,62.34
2018-02-25T05:32:47.293Z,62.43
2018-02-25T05:33:47.240Z,62.25
2018-02-25T05:34:47.226Z,62.43
2018-02-25T05:35:47.194Z,62.25
2018-02-25T05:36:47.146Z,62.06
2018-02-25T05:37:47.166Z,62.53
2018-02-25T05:38:47.105Z,62.43
2018-02-25T05:39:47.062Z,62.34
2018-02-25T05:40:47.039Z,62.62
2018-02-25T05:41:47.002Z,62.43
2018-02-25T05:42:46.972Z,62.62
2018-02-25T05:43:46.953Z,62.81
2018-02-25T05:44:46.918Z,62.81
2018-02-25T05:45:46.871Z,62.34
2018-02-25T05:46:46.877Z,62.91
2018-02-25T05:47:46.842Z,62.91
2018-02-25T05:48:46.792Z,62.91
2018-02-25T05:49:46.808Z,63.47
2018-02-25T05:50:46.747Z,63.57
2018-02-25T05:51:46.697Z,63.38
2018-02-25T05:52:46.689Z,63.47
2018-02-25T05:53:46.637Z,63.38
2018-02-25T05:54:46.625Z,63.47
2018-02-25T05:55:46.595Z,63.47
2018-02-25T05:56:46.547Z,63.00
2018-02-25T05:57:46.521Z,63.19
2018-02-25T05:58:46.486Z,63.19
2018-02-25T05:59:46.470Z,63.38
2018-02-25T06:00:46.425Z,63.57
2018-02-25T06:01:46.386Z,63.38
2018-02-25T06:02:46.348Z,63.29
2018-02-25T06:03:46.319Z,63.76
2018-02-25T06:04:46.296Z,64.14
2018-02-25T06:05:46.282Z,64.14
2018-02-25T06:06:46.222Z,64.23
2018-02-25T06:07:46.210Z,64.04
2018-02-25T06:08:46.200Z,63.85
2018-02-25T06:09:46.157Z,63.57
2018-02-25T06:10:46.099Z,64.23
2018-02-25T06:11:46.094Z,64.14
2018-02-25T06:12:46.039Z,64.23
2018-02-25T06:13:46.028Z,64.14
2018-02-25T06:14:45.988Z,64.42
2018-02-25T06:15:45.961Z,64.32
2018-02-25T06:16:45.949Z,64.32
2018-02-25T06:17:45.908Z,63.76
2018-02-25T06:18:45.878Z,64.32
2018-02-25T06:19:45.824Z,64.23
2018-02-25T06:20:45.811Z,64.23
2018-02-25T06:21:45.786Z,64.23
2018-02-25T06:22:45.730Z,64.23
2018-02-25T06:23:45.703Z,63.76
2018-02-25T06:24:45.669Z,64.04
2018-02-25T06:25:45.688Z,64.32
2018-02-25T06:26:45.634Z,64.14
2018-02-25T06:27:45.596Z,64.04
2018-02-25T06:28:45.548Z,63.85
2018-02-25T06:29:45.526Z,64.04
2018-02-25T06:30:45.491Z,64.51
2018-02-25T06:31:45.488Z,64.61
2018-02-25T06:32:45.446Z,64.70
2018-02-25T06:33:45.416Z,64.70
2018-02-25T06:34:45.380Z,64.61
2018-02-25T06:35:45.374Z,64.70
2018-02-25T06:36:45.300Z,64.61
2018-02-25T06:37:45.286Z,64.61
2018-02-25T06:38:45.283Z,64.70
2018-02-25T06:39:45.207Z,64.70
2018-02-25T06:40:45.185Z,65.08
2018-02-25T06:41:45.166Z,64.70
2018-02-25T06:42:45.123Z,64.79
2018-02-25T06:43:45.116Z,64.51
2018-02-25T06:44:45.083Z,64.70
2018-02-25T06:45:45.022Z,64.70
2018-02-25T06:46:45.009Z,64.70
2018-02-25T06:47:44.979Z,64.79
2018-02-25T06:48:44.948Z,64.79
2018-02-25T06:49:44.895Z,64.51
2018-02-25T06:50:44.869Z,64.79
2018-02-25T06:51:44.869Z,64.61
2018-02-25T06:52:44.842Z,64.61
2018-02-25T06:53:44.791Z,64.79
2018-02-25T06:54:44.756Z,64.70
2018-02-25T06:55:44.725Z,64.42
2018-02-25T06:56:44.684Z,64.61
2018-02-25T06:57:44.691Z,64.51
2018-02-25T06:58:44.626Z,64.70
2018-02-25T06:59:44.627Z,64.51
2018-02-25T07:00:44.575Z,64.79
2018-02-25T07:01:44.536Z,64.70
2018-02-25T07:02:44.504Z,64.61
2018-02-25T07:03:44.465Z,64.98
2018-02-25T07:04:44.443Z,64.70
2018-02-25T07:05:44.409Z,64.61
2018-02-25T07:06:44.391Z,64.51
2018-02-25T07:07:44.341Z,64.04
2018-02-25T07:08:44.305Z,63.85
2018-02-25T07:09:44.297Z,63.95
2018-02-25T07:10:44.251Z,64.23
2018-02-25T07:11:44.248Z,64.61
2018-02-25T07:12:44.205Z,63.95
2018-02-25T07:13:44.174Z,64.14
2018-02-25T07:14:44.154Z,64.14
2018-02-25T07:15:44.105Z,64.14
2018-02-25T07:16:44.064Z,64.98
2018-02-25T07:17:44.061Z,64.79
2018-02-25T07:18:44.017Z,64.04
2018-02-25T07:19:43.988Z,64.23
2018-02-25T07:20:43.954Z,64.32
2018-02-25T07:21:43.916Z,64.04
2018-02-25T07:22:43.918Z,64.32
2018-02-25T07:23:43.861Z,64.14
2018-02-25T07:24:43.812Z,63.95
2018-02-25T07:25:43.828Z,63.66
2018-02-25T07:26:43.772Z,63.19
2018-02-25T07:27:43.720Z,63.57
2018-02-25T07:28:43.733Z,63.38
2018-02-25T07:29:43.691Z,63.38
2018-02-25T07:30:43.635Z,63.19
2018-02-25T07:31:43.647Z,63.22
2018-02-25T07:32:43.576Z,63.29
2018-02-25T07:33:43.543Z,62.75
2018-02-25T07:34:43.530Z,63.13
2018-02-25T07:35:43.485Z,63.51
2018-02-25T07:36:43.468Z,63.41
2018-02-25T07:37:43.439Z,63.32
2018-02-25T07:38:43.400Z,62.94
2018-02-25T07:39:43.404Z,62.56
2018-02-25T07:40:43.352Z,62.18
2018-02-25T07:41:43.298Z,62.37
2018-02-25T07:42:43.303Z,62.18
2018-02-25T07:43:43.246Z,62.09
2018-02-25T07:44:43.226Z,62.56
2018-02-25T07:45:43.225Z,62.47
2018-02-25T07:46:43.181Z,62.09
2018-02-25T07:47:43.114Z,62.75
2018-02-25T07:48:43.098Z,62.37
2018-02-25T07:49:43.067Z,62.18
2018-02-25T07:50:43.031Z,61.99
2018-02-25T07:51:43.014Z,61.99
2018-02-25T07:52:43.021Z,61.90
2018-02-25T07:53:42.964Z,61.24
2018-02-25T07:54:42.905Z,61.33
2018-02-25T07:55:42.883Z,61.33
2018-02-25T07:56:42.856Z,61.33
2018-02-25T07:57:42.888Z,61.05
2018-02-25T07:58:42.789Z,61.43
2018-02-25T07:59:42.779Z,61.43
2018-02-25T08:00:42.740Z,61.71
2018-02-25T08:01:42.703Z,61.33
2018-02-25T08:02:42.666Z,61.24
2018-02-25T08:03:42.639Z,61.24
2018-02-25T08:04:42.604Z,60.77
2018-02-25T08:05:42.580Z,61.61
2018-02-25T08:06:42.616Z,61.24
2018-02-25T08:07:42.511Z,61.52
2018-02-25T08:08:42.531Z,61.43
2018-02-25T08:09:42.480Z,61.33
2018-02-25T08:10:42.447Z,60.49
2018-02-25T08:11:42.407Z,60.49
2018-02-25T08:12:42.385Z,60.77
2018-02-25T08:13:42.337Z,60.68
2018-02-25T08:14:42.301Z,60.11
2018-02-25T08:15:42.287Z,59.73
2018-02-25T08:16:42.249Z,59.73
2018-02-25T08:17:42.226Z,60.21
2018-02-25T08:18:42.183Z,60.02
2018-02-25T08:19:42.176Z,60.21
2018-02-25T08:20:42.128Z,60.02
2018-02-25T08:21:42.094Z,59.35
2018-02-25T08:22:42.094Z,59.64
2018-02-25T08:23:42.040Z,59.45
2018-02-25T08:24:42.010Z,59.35
2018-02-25T08:25:41.984Z,59.35
2018-02-25T08:26:41.989Z,59.35
2018-02-25T08:27:41.945Z,58.79
2018-02-25T08:28:41.938Z,59.17
2018-02-25T08:29:41.857Z,59.17
2018-02-25T08:30:41.830Z,58.98
2018-02-25T08:31:41.806Z,58.79
2018-02-25T08:32:41.781Z,58.31
2018-02-25T08:33:41.748Z,58.31
2018-02-25T08:34:41.722Z,58.50
2018-02-25T08:35:41.682Z,58.22
2018-02-25T08:36:41.721Z,58.22
2018-02-25T08:37:41.642Z,58.60
2018-02-25T08:38:41.599Z,58.22
2018-02-25T08:39:41.612Z,57.94
2018-02-25T08:40:41.534Z,58.12
2018-02-25T08:41:41.507Z,58.12
2018-02-25T08:42:41.486Z,57.65
2018-02-25T08:43:41.463Z,57.59
2018-02-25T08:44:41.417Z,57.21
2018-02-25T08:45:41.390Z,56.99
2018-02-25T08:46:41.359Z,56.81
2018-02-25T08:47:41.323Z,56.52
2018-02-25T08:48:41.319Z,57.09
2018-02-25T08:49:41.284Z,56.84
2018-02-25T08:50:41.239Z,56.93
2018-02-25T08:51:41.208Z,56.84
2018-02-25T08:52:41.176Z,57.03
2018-02-25T08:53:41.187Z,57.40
2018-02-25T08:54:41.119Z,57.12
2018-02-25T08:55:41.108Z,56.65
2018-02-25T08:56:41.063Z,56.65
2018-02-25T08:57:41.053Z,56.36
2018-02-25T08:58:41.008Z,56.65
2018-02-25T08:59:41.015Z,56.17
2018-02-25T09:00:41.013Z,55.80
2018-02-25T09:01:40.970Z,55.61
2018-02-25T09:02:40.929Z,55.42
2018-02-25T09:03:40.911Z,55.51
2018-02-25T09:04:40.833Z,55.51
2018-02-25T09:05:40.830Z,54.47
2018-02-25T09:06:40.813Z,54.28
2018-02-25T09:07:40.753Z,54.10
2018-02-25T09:08:40.796Z,54.19
2018-02-25T09:09:40.714Z,54.47
2018-02-25T09:10:40.689Z,54.10
2018-02-25T09:11:40.624Z,54.47
2018-02-25T09:12:40.620Z,53.72
2018-02-25T09:13:40.567Z,53.15
2018-02-25T09:14:40.543Z,52.68
2018-02-25T09:15:40.524Z,52.49
2018-02-25T09:16:40.484Z,52.40
2018-02-25T09:17:40.449Z,52.49
2018-02-25T09:18:40.461Z,52.59
2018-02-25T09:19:40.458Z,52.30
2018-02-25T09:20:40.389Z,52.11
2018-02-25T09:21:40.339Z,51.73
2018-02-25T09:22:40.335Z,51.54
2018-02-25T09:23:40.290Z,51.36
2018-02-25T09:24:40.259Z,51.64
2018-02-25T09:25:40.215Z,51.17
2018-02-25T09:26:40.210Z,51.64
2018-02-25T09:27:40.175Z,51.26
2018-02-25T09:28:40.145Z,51.45
2018-02-25T09:29:40.145Z,51.54
2018-02-25T09:30:40.086Z,51.64
2018-02-25T09:31:40.049Z,51.64
2018-02-25T09:32:40.024Z,51.83
2018-02-25T09:33:40.075Z,51.07
2018-02-25T09:34:39.969Z,51.54
2018-02-25T09:35:39.934Z,50.89
2018-02-25T09:36:39.896Z,50.60
2018-02-25T09:37:39.907Z,50.04
2018-02-25T09:38:39.851Z,50.42
2018-02-25T09:39:39.838Z,50.23
2018-02-25T09:40:39.792Z,50.32
2018-02-25T09:41:39.756Z,50.32
2018-02-25T09:42:39.732Z,50.32
2018-02-25T09:43:39.697Z,49.85
2018-02-25T09:44:39.669Z,49.94
2018-02-25T09:45:39.673Z,49.78
2018-02-25T09:46:39.626Z,49.87
2018-02-25T09:47:39.612Z,48.83
2018-02-25T09:48:39.806Z,48.93
2018-02-25T09:49:39.600Z,49.02
2018-02-25T09:50:39.510Z,48.71
2018-02-25T09:51:39.531Z,48.43
2018-02-25T09:52:39.468Z,49.19
2018-02-25T09:53:39.415Z,48.74
2018-02-25T09:54:39.393Z,48.93
2018-02-25T09:55:39.792Z,49.40
2018-02-25T09:56:39.330Z,49.68
2018-02-25T09:57:39.304Z,49.49
2018-02-25T09:58:39.279Z,49.78
2018-02-25T09:59:39.241Z,50.06
2018-02-25T10:00:39.253Z,49.11
2018-02-25T10:01:39.182Z,49.11
2018-02-25T10:02:39.165Z,49.21
2018-02-25T10:03:39.176Z,49.02
2018-02-25T10:04:39.134Z,49.02
2018-02-25T10:05:39.080Z,49.21
2018-02-25T10:06:39.051Z,48.55
2018-02-25T10:07:39.033Z,48.93
2018-02-25T10:08:39.058Z,48.93
2018-02-25T10:09:38.967Z,49.11
2018-02-25T10:10:38.964Z,48.83
2018-02-25T10:11:38.926Z,49.02
2018-02-25T10:12:38.883Z,48.74
2018-02-25T10:13:38.851Z,48.55
2018-02-25T10:14:38.827Z,48.46
2018-02-25T10:15:38.800Z,48.36
2018-02-25T10:16:38.802Z,48.18
2018-02-25T10:17:38.756Z,47.99
2018-02-25T10:18:38.734Z,48.36
2018-02-25T10:19:38.685Z,48.55
2018-02-25T10:20:38.646Z,47.99
2018-02-25T10:21:38.645Z,48.08
2018-02-25T10:22:38.598Z,48.08
2018-02-25T10:23:38.572Z,48.36
2018-02-25T10:24:38.534Z,47.89
2018-02-25T10:25:38.671Z,47.70
2018-02-25T10:28:00.838Z,47.80
2018-02-25T10:29:01.182Z,47.80
2018-02-25T10:30:00.801Z,48.08
2018-02-25T10:31:01.538Z,47.99
2018-02-25T10:32:00.825Z,47.80
2018-02-25T10:33:00.908Z,47.32
2018-02-25T10:34:01.132Z,47.23
2018-02-25T10:35:00.667Z,47.04
2018-02-25T10:36:00.623Z,46.85
2018-02-25T10:37:00.733Z,46.56
2018-02-25T10:38:00.603Z,46.47
2018-02-25T10:39:00.570Z,46.85
2018-02-25T10:40:00.512Z,46.66
2018-02-25T10:41:00.484Z,46.09
2018-02-25T10:42:00.449Z,46.09
2018-02-25T10:43:00.428Z,46.09
2018-02-25T10:44:00.397Z,46.37
2018-02-25T10:45:00.359Z,45.53
2018-02-25T10:46:00.345Z,45.34
2018-02-25T10:47:00.297Z,44.96
2018-02-25T10:48:00.282Z,44.68
2018-02-25T10:49:00.248Z,44.68
2018-02-25T10:50:00.216Z,45.15
2018-02-25T10:51:00.184Z,44.96
2018-02-25T10:52:00.153Z,45.90
2018-02-25T10:53:00.145Z,45.53
2018-02-25T10:54:00.128Z,45.72
2018-02-25T10:55:00.102Z,45.53
2018-02-25T10:56:00.056Z,45.81
2018-02-25T10:57:00.136Z,45.62
2018-02-25T10:58:00.033Z,45.81
2018-02-25T10:59:00.332Z,45.06
2018-02-25T10:59:59.949Z,44.77
2018-02-25T11:00:59.979Z,44.49
2018-02-25T11:01:59.877Z,44.49
2018-02-25T11:02:59.883Z,44.49
2018-02-25T11:03:59.825Z,44.49
2018-02-25T11:04:59.853Z,44.96
2018-02-25T11:05:59.776Z,44.39
2018-02-25T11:06:59.755Z,44.70
2018-02-25T11:09:23.032Z,44.79
2018-02-25T11:10:22.711Z,44.70
2018-02-25T11:11:22.679Z,44.51
2018-02-25T11:12:22.826Z,44.04
2018-02-25T11:13:22.610Z,44.23
2018-02-25T11:14:22.608Z,44.23
2018-02-25T11:15:22.824Z,44.13
2018-02-25T11:16:22.529Z,43.57
2018-02-25T11:17:22.682Z,43.09
2018-02-25T11:18:22.477Z,42.71
2018-02-25T11:19:22.442Z,42.71
2018-02-25T11:20:22.423Z,42.81
2018-02-25T11:21:22.395Z,42.71
2018-02-25T11:22:22.367Z,42.71
2018-02-25T11:23:22.354Z,42.71
2018-02-25T11:24:22.352Z,43.28
2018-02-25T11:25:30.210Z,43.28
2018-02-25T11:27:16.934Z,43.19
2018-02-25T11:28:16.702Z,42.81
2018-02-25T11:30:49.723Z,42.81
2018-02-25T11:31:39.651Z,42.24
2018-02-25T11:32:39.523Z,42.71
2018-02-25T11:33:39.561Z,42.62
2018-02-25T11:34:39.758Z,43.00
2018-02-25T11:35:39.460Z,43.00
2018-02-25T11:36:39.496Z,42.15
2018-02-25T11:37:39.448Z,42.15
2018-02-25T11:38:39.405Z,41.77
2018-02-25T11:39:39.317Z,41.67
2018-02-25T11:40:39.654Z,42.34
2018-02-25T11:41:39.274Z,41.96
2018-02-25T11:42:40.214Z,41.67
2018-02-25T11:43:39.462Z,41.20
2018-02-25T11:44:39.239Z,41.20
2018-02-25T11:45:39.193Z,40.83
2018-02-25T11:48:10.848Z,40.92
2018-02-25T11:49:02.249Z,40.54
2018-02-25T11:50:02.556Z,40.83
2018-02-25T11:51:02.194Z,40.83
2018-02-25T11:52:02.075Z,41.02
2018-02-25T11:53:02.005Z,41.20
2018-02-25T11:54:02.021Z,41.30
2018-02-25T11:55:01.955Z,41.02
2018-02-25T11:56:01.931Z,40.73
2018-02-25T11:57:02.144Z,41.11
2018-02-25T11:58:01.869Z,40.83
2018-02-25T11:59:01.848Z,40.83
2018-02-25T12:00:01.813Z,40.83
2018-02-25T12:02:24.879Z,40.73
2018-02-25T12:03:25.219Z,41.20
2018-02-25T12:04:24.865Z,41.02
2018-02-25T12:05:26.380Z,41.20
2018-02-25T12:06:24.890Z,41.20
2018-02-25T12:07:24.730Z,41.11
2018-02-25T12:08:24.730Z,41.20
2018-02-25T12:09:24.727Z,41.30
2018-02-25T12:10:24.654Z,41.20
2018-02-25T12:13:00.190Z,41.02
2018-02-25T12:13:48.634Z,40.83
2018-02-25T12:14:48.521Z,41.20
2018-02-25T12:15:48.406Z,40.83
2018-02-25T12:16:49.583Z,40.64
2018-02-25T12:19:11.421Z,39.69
2018-02-25T12:20:11.421Z,39.50
2018-02-25T12:21:11.293Z,39.78
2018-02-25T12:23:35.019Z,39.03
2018-02-25T12:24:34.677Z,39.12
2018-02-25T12:25:34.692Z,39.12
2018-02-25T12:28:08.805Z,39.03
2018-02-25T12:28:57.697Z,38.46
2018-02-25T12:29:57.645Z,38.75
2018-02-25T12:30:57.540Z,38.65
2018-02-25T12:33:20.662Z,38.95
2018-02-25T12:34:20.835Z,38.86
2018-02-25T12:35:20.682Z,38.95
2018-02-25T12:36:20.532Z,38.95
2018-02-25T12:37:20.477Z,39.24
2018-02-25T12:39:55.592Z,39.14
2018-02-25T12:40:44.430Z,39.24
2018-02-25T12:41:44.399Z,38.95
2018-02-25T12:42:44.479Z,38.95
2018-02-25T12:43:44.341Z,38.48
2018-02-25T12:44:44.338Z,38.20
2018-02-25T12:45:44.299Z,38.01
2018-02-25T12:46:44.323Z,38.10
2018-02-25T12:47:44.339Z,37.82
2018-02-25T12:48:44.225Z,38.20
2018-02-25T12:49:44.189Z,38.01
2018-02-25T12:52:18.876Z,37.16
2018-02-25T12:53:08.316Z,37.06
2018-02-25T12:54:08.173Z,36.87
2018-02-25T12:55:08.174Z,37.06
2018-02-25T12:56:08.176Z,36.78
2018-02-25T12:57:17.153Z,36.87
2018-02-25T12:59:12.695Z,37.06
2018-02-25T13:00:02.429Z,36.49
2018-02-25T13:01:02.639Z,36.59
2018-02-25T13:02:02.481Z,37.06
2018-02-25T13:03:02.367Z,36.78
2018-02-25T13:04:02.402Z,36.68
2018-02-25T13:05:02.338Z,36.12
2018-02-25T13:06:02.283Z,36.31
2018-02-25T13:07:02.249Z,36.31
2018-02-25T13:09:36.415Z,36.59
2018-02-25T13:10:25.235Z,36.12
2018-02-25T13:11:34.031Z,36.12
2018-02-25T13:13:29.615Z,35.55
2018-02-25T13:14:20.881Z,34.89
2018-02-25T13:15:19.485Z,34.61
2018-02-25T13:16:19.435Z,34.89
2018-02-25T13:17:19.571Z,35.74
2018-02-25T13:18:19.390Z,35.93
2018-02-25T13:19:19.353Z,35.93
2018-02-25T13:20:19.336Z,35.55
2018-02-25T13:21:19.361Z,35.74
2018-02-25T13:22:19.284Z,35.55
2018-02-25T13:23:19.297Z,35.46